createdAt,value
2023-01-07T00:03:35.487Z,10.00
2023-01-07T00:07:39.452Z,9.90
2023-01-07T00:11:43.545Z,9.90
2023-01-07T00:15:47.777Z,9.90
2023-01-07T00:19:51.765Z,9.90
2023-01-07T00:24:01.494Z,9.90
2023-01-07T00:28:07.429Z,9.90
2023-01-07T05:34:46.241Z,9.40
2023-01-07T05:38:52.152Z,9.30
2023-01-07T05:42:56.049Z,9.30
2023-01-07T05:46:59.983Z,9.30
2023-01-07T05:51:03.825Z,9.30
2023-01-07T05:55:08.882Z,9.20
2023-01-07T05:59:12.654Z,9.20
2023-01-07T06:03:16.433Z,9.10
2023-01-07T06:07:20.293Z,9.10
2023-01-07T06:11:24.065Z,9.10
2023-01-07T06:15:29.084Z,9.10
2023-01-07T06:19:32.902Z,9.00
2023-01-07T06:23:37.572Z,9.00
2023-01-07T06:27:41.480Z,8.90
2023-01-07T06:31:45.304Z,8.90
2023-01-07T06:35:50.202Z,8.90
2023-01-07T06:39:54.323Z,8.90
2023-01-07T06:43:58.075Z,8.90
2023-01-07T06:48:02.193Z,8.90
2023-01-07T06:52:05.902Z,8.90
2023-01-07T06:56:09.732Z,8.90
2023-01-07T07:00:13.963Z,8.90
2023-01-07T07:04:17.947Z,9.00
2023-01-07T07:08:22.062Z,9.00
2023-01-07T07:12:26.272Z,9.00
2023-01-07T07:16:32.659Z,9.00
2023-01-07T07:20:37.215Z,9.00
2023-01-07T07:24:41.209Z,9.10
2023-01-07T07:28:45.376Z,9.10
2023-01-07T07:32:49.445Z,9.20
2023-01-07T07:36:53.550Z,9.30
2023-01-07T07:40:57.945Z,9.40
2023-01-07T07:45:02.169Z,9.50
2023-01-07T07:49:06.537Z,9.60
2023-01-07T07:53:11.909Z,9.70
2023-01-07T07:57:16.020Z,9.80
2023-01-07T08:01:20.327Z,9.90
2023-01-07T08:05:24.893Z,10.00
2023-01-07T08:09:29.419Z,10.10
2023-01-07T08:13:33.491Z,10.20
2023-01-07T08:17:37.770Z,10.40
2023-01-07T08:21:41.997Z,10.50
2023-01-07T08:25:46.190Z,10.60
2023-01-07T08:29:50.437Z,10.70
2023-01-07T08:33:54.570Z,10.80
2023-01-07T08:38:03.634Z,11.00
2023-01-07T08:42:07.939Z,11.10
2023-01-07T08:46:11.969Z,11.30
2023-01-07T08:50:16.125Z,11.50
2023-01-07T08:54:20.243Z,11.60
2023-01-07T08:58:25.853Z,11.70
2023-01-07T09:02:30.054Z,12.00
2023-01-07T09:06:34.247Z,12.20
2023-01-07T09:10:38.343Z,12.30
2023-01-07T09:14:42.468Z,12.50
2023-01-07T09:18:46.547Z,12.60
2023-01-07T09:22:50.647Z,12.80
2023-01-07T09:26:54.969Z,12.90
2023-01-07T09:31:00.439Z,13.00
2023-01-07T09:35:06.737Z,13.00
2023-01-07T09:39:12.577Z,13.10
2023-01-07T09:44:01.184Z,13.20
2023-01-07T09:48:01.858Z,13.40
2023-01-07T09:52:27.082Z,13.50
2023-01-07T09:56:34.581Z,13.70
2023-01-07T10:00:41.796Z,13.80
2023-01-07T10:05:22.747Z,14.00
2023-01-07T10:09:51.857Z,14.10
2023-01-07T10:14:03.845Z,14.30
2023-01-07T10:18:25.838Z,14.40
2023-01-07T10:22:37.901Z,14.50
2023-01-07T10:26:45.578Z,14.60
2023-01-07T10:30:53.623Z,14.60
2023-01-07T10:34:59.811Z,14.80
2023-01-07T10:39:15.893Z,14.90
2023-01-07T10:43:39.827Z,15.00
2023-01-07T10:48:12.358Z,15.10
2023-01-07T10:52:50.009Z,15.20
2023-01-07T10:57:01.536Z,15.40
2023-01-07T11:01:06.797Z,15.40
2023-01-07T11:05:14.757Z,15.50
2023-01-07T11:09:29.965Z,15.50
2023-01-07T11:13:38.062Z,15.60
2023-01-07T11:17:48.253Z,15.60
2023-01-07T11:21:52.623Z,15.70
2023-01-07T11:26:12.100Z,15.70
2023-01-07T11:30:27.033Z,15.70
2023-01-07T11:35:02.172Z,15.60
2023-01-07T11:39:11.962Z,15.50
2023-01-07T11:43:18.498Z,15.50
2023-01-07T11:47:22.662Z,15.40
2023-01-07T11:51:26.896Z,15.40
2023-01-07T11:55:31.182Z,15.50
2023-01-07T11:59:34.832Z,15.60
2023-01-07T12:04:03.343Z,15.70
2023-01-07T12:08:21.830Z,15.70
2023-01-07T12:12:39.781Z,15.60
2023-01-07T12:16:48.022Z,15.50
2023-01-07T12:21:19.211Z,15.50
2023-01-07T12:25:38.350Z,15.40
2023-01-07T12:29:48.602Z,15.50
2023-01-07T12:34:05.053Z,15.50
2023-01-07T12:38:36.252Z,15.50
2023-01-07T12:42:43.911Z,15.40
2023-01-07T12:47:31.704Z,15.40
2023-01-07T12:51:51.982Z,15.30
2023-01-07T12:56:00.960Z,15.20
2023-01-07T13:00:23.385Z,15.20
2023-01-07T13:05:01.176Z,15.00
2023-01-07T13:09:13.109Z,14.90
2023-01-07T13:13:29.085Z,14.80
2023-01-07T13:17:33.950Z,14.70
2023-01-07T13:21:39.224Z,14.60
2023-01-07T13:26:16.011Z,14.50
2023-01-07T13:30:39.209Z,14.50
2023-01-07T13:35:19.110Z,14.50
2023-01-07T13:39:41.361Z,14.60
2023-01-07T13:44:21.017Z,14.60
2023-01-07T13:48:27.934Z,14.60
2023-01-07T13:52:34.184Z,14.60
2023-01-07T13:56:39.687Z,14.70
2023-01-07T14:01:02.626Z,14.60
2023-01-07T14:05:12.561Z,14.70
2023-01-07T14:09:25.270Z,14.60
2023-01-07T14:14:01.181Z,14.50
2023-01-07T14:18:29.181Z,14.50
2023-01-07T14:22:49.063Z,14.40
2023-01-07T14:27:28.304Z,14.40
2023-01-07T14:31:32.378Z,14.30
2023-01-07T14:35:40.849Z,14.20
2023-01-07T14:39:46.424Z,14.10
2023-01-07T14:44:02.497Z,14.00
2023-01-07T14:48:12.125Z,14.00
2023-01-07T14:52:25.038Z,13.90
2023-01-07T14:56:43.314Z,13.80
2023-01-07T15:01:26.119Z,13.70
2023-01-07T15:05:48.495Z,13.50
2023-01-07T15:10:15.106Z,13.40
2023-01-07T15:14:48.643Z,13.20
2023-01-07T15:18:55.675Z,13.10
2023-01-07T15:23:16.776Z,13.00
2023-01-07T15:27:37.698Z,12.80
2023-01-07T15:32:09.163Z,12.60
2023-01-07T15:36:16.158Z,12.40
2023-01-07T15:40:25.055Z,12.10
2023-01-07T15:44:34.174Z,12.00
2023-01-07T15:48:38.384Z,11.90
2023-01-07T15:52:51.483Z,11.80
2023-01-07T15:57:17.964Z,11.70
2023-01-07T16:01:24.739Z,11.60
2023-01-07T16:05:29.168Z,11.50
2023-01-07T16:09:35.131Z,11.50
2023-01-07T16:13:39.160Z,11.40
2023-01-07T16:17:54.625Z,11.40
2023-01-07T16:22:00.881Z,11.30
2023-01-07T16:26:25.126Z,11.30
2023-01-07T16:30:29.337Z,11.20
2023-01-07T16:34:33.924Z,11.20
2023-01-07T16:38:38.434Z,11.20
2023-01-07T16:42:48.693Z,11.20
2023-01-07T16:47:07.590Z,11.20
2023-01-07T16:51:54.553Z,11.20
2023-01-07T16:56:12.017Z,11.10
2023-01-07T17:00:23.005Z,11.10
2023-01-07T17:04:30.554Z,11.20
2023-01-07T17:08:36.268Z,11.20
2023-01-07T17:12:41.992Z,11.20
2023-01-07T17:17:19.884Z,11.20
2023-01-07T17:21:30.146Z,11.20
2023-01-07T17:25:35.019Z,11.20
2023-01-07T17:29:44.696Z,11.10
2023-01-07T17:33:48.845Z,11.10
2023-01-07T17:37:54.876Z,11.10
2023-01-07T17:42:18.064Z,11.10
2023-01-07T17:46:27.803Z,11.00
2023-01-07T17:50:37.882Z,11.00
2023-01-07T17:54:45.217Z,11.00
2023-01-07T17:58:56.304Z,11.00
2023-01-07T18:03:03.180Z,10.90
2023-01-07T18:07:08.987Z,10.90
2023-01-07T18:11:47.253Z,10.90
2023-01-07T18:15:53.416Z,10.80
2023-01-07T18:19:57.712Z,10.60
2023-01-07T18:24:06.769Z,10.50
2023-01-07T18:28:12.923Z,10.40
2023-01-07T18:32:17.130Z,10.30
2023-01-07T18:36:21.950Z,10.10
2023-01-07T18:40:25.682Z,10.10
2023-01-07T18:44:29.752Z,10.00
2023-01-07T18:48:33.693Z,10.10
2023-01-07T18:52:43.883Z,10.20
2023-01-07T18:56:47.891Z,10.20
2023-01-07T19:00:51.929Z,10.20
2023-01-07T19:04:56.189Z,10.20
2023-01-07T19:09:00.054Z,10.20
2023-01-07T19:13:03.925Z,10.20
2023-01-07T19:17:08.902Z,10.20
2023-01-07T19:21:13.511Z,10.20
2023-01-07T19:25:18.567Z,10.10
2023-01-07T19:29:22.793Z,10.10
2023-01-07T19:33:29.202Z,10.00
2023-01-07T19:37:33.195Z,10.00
2023-01-07T19:41:37.343Z,10.00
2023-01-07T19:45:41.933Z,10.10
2023-01-07T19:49:47.323Z,10.10
2023-01-07T19:53:51.492Z,10.10
2023-01-07T19:57:56.291Z,10.10
2023-01-07T20:02:00.754Z,10.10
2023-01-07T20:06:08.042Z,10.20
2023-01-07T20:10:12.793Z,10.20
2023-01-07T20:14:16.960Z,10.20
2023-01-07T20:18:21.331Z,10.20
2023-01-07T20:22:28.585Z,10.20
2023-01-07T20:26:33.870Z,10.20
2023-01-07T20:30:40.070Z,10.20
2023-01-07T20:34:45.183Z,10.10
2023-01-07T20:38:49.999Z,10.10
2023-01-07T20:42:54.042Z,10.00
2023-01-07T20:46:58.130Z,10.00
2023-01-07T20:51:06.971Z,10.10
2023-01-07T20:55:13.641Z,10.00
2023-01-07T20:59:17.937Z,10.00
2023-01-07T21:03:29.651Z,10.10
2023-01-07T21:07:33.823Z,10.00
2023-01-07T21:11:41.068Z,10.00
2023-01-07T21:15:45.117Z,10.00
2023-01-07T21:19:49.511Z,10.00
2023-01-07T21:23:55.239Z,10.00
2023-01-07T21:28:00.521Z,10.00
2023-01-07T21:32:04.823Z,9.90
2023-01-07T21:36:13.923Z,9.90
2023-01-07T21:40:17.973Z,9.90
2023-01-07T21:44:25.325Z,9.80
2023-01-07T21:48:31.651Z,9.80
2023-01-07T21:52:36.812Z,9.80
2023-01-07T21:56:40.813Z,9.80
2023-01-07T22:00:44.643Z,9.80
2023-01-07T22:04:48.942Z,9.80
2023-01-07T22:08:56.911Z,9.80
2023-01-07T22:13:01.594Z,9.80
2023-01-07T22:17:06.266Z,9.80
2023-01-07T22:21:10.328Z,9.80
2023-01-07T22:25:16.341Z,9.90
2023-01-07T22:29:20.365Z,9.90
2023-01-07T22:33:24.325Z,9.90
2023-01-07T22:37:28.202Z,9.80
2023-01-07T22:41:33.702Z,9.70
2023-01-07T22:45:40.992Z,9.50
2023-01-07T22:49:45.850Z,9.50
2023-01-07T22:53:52.874Z,9.50
2023-01-07T22:57:56.830Z,9.60
2023-01-07T23:02:00.668Z,9.60
2023-01-07T23:06:04.984Z,9.70
2023-01-07T23:10:09.534Z,9.70
2023-01-07T23:14:13.597Z,9.80
2023-01-07T23:18:18.238Z,9.70
2023-01-07T23:22:22.063Z,9.80
2023-01-07T23:26:26.003Z,9.80
2023-01-07T23:30:32.452Z,9.80
2023-01-07T23:34:40.377Z,9.90
2023-01-07T23:38:44.320Z,9.80
2023-01-07T23:42:51.504Z,9.80
2023-01-07T23:46:55.313Z,9.80
2023-01-07T23:51:22.527Z,9.80
2023-01-07T23:55:26.845Z,9.70
2023-01-07T23:59:30.953Z,9.70
